createdAt,value
2022-11-28T00:02:03.022Z,0
2022-11-28T00:07:09.491Z,0
2022-11-28T00:12:15.970Z,0
2022-11-28T00:17:22.448Z,0
2022-11-28T00:22:28.909Z,0
2022-11-28T00:27:35.427Z,0
2022-11-28T00:32:41.888Z,0
2022-11-28T00:37:48.330Z,0
2022-11-28T00:42:54.810Z,0
2022-11-28T00:48:00.253Z,0
2022-11-28T00:53:06.297Z,0
2022-11-28T00:58:12.401Z,0
2022-11-28T01:03:18.487Z,0
2022-11-28T01:08:24.589Z,0
2022-11-28T01:13:29.668Z,0
2022-11-28T01:18:35.769Z,0
2022-11-28T01:23:41.851Z,0
2022-11-28T01:28:47.938Z,0
2022-11-28T01:33:54.029Z,0
2022-11-28T01:39:00.187Z,0
2022-11-28T01:44:06.213Z,0
2022-11-28T01:49:12.293Z,0
2022-11-28T01:54:18.398Z,0
2022-11-28T01:59:24.488Z,0
2022-11-28T02:04:30.573Z,0
2022-11-28T02:09:36.663Z,0
2022-11-28T02:14:42.789Z,0
2022-11-28T02:19:48.836Z,0
2022-11-28T02:24:54.939Z,0
2022-11-28T02:30:01.078Z,0
2022-11-28T02:35:07.118Z,0
2022-11-28T02:40:13.211Z,0
2022-11-28T02:45:19.304Z,0
2022-11-28T02:50:25.432Z,0
2022-11-28T02:55:31.503Z,0
2022-11-28T03:00:37.565Z,0
2022-11-28T03:05:43.655Z,0
2022-11-28T03:10:49.757Z,0
2022-11-28T03:15:55.840Z,0
2022-11-28T03:21:01.926Z,0
2022-11-28T03:26:07.073Z,0
2022-11-28T03:31:13.137Z,0
2022-11-28T03:41:25.325Z,0
2022-11-28T03:46:31.414Z,0
2022-11-28T03:51:37.537Z,0
2022-11-28T03:56:43.588Z,0
2022-11-28T04:01:49.690Z,0
2022-11-28T04:06:55.767Z,0
2022-11-28T04:12:01.863Z,0
2022-11-28T04:17:06.972Z,0
2022-11-28T04:22:13.067Z,0
2022-11-28T04:27:19.152Z,0
2022-11-28T04:32:25.258Z,0
2022-11-28T04:37:31.353Z,0
2022-11-28T04:42:37.425Z,0
2022-11-28T04:47:43.519Z,0
2022-11-28T04:52:49.608Z,0
2022-11-28T04:57:55.700Z,0
2022-11-28T05:03:01.785Z,0
2022-11-28T05:08:07.876Z,0
2022-11-28T05:13:13.963Z,128
2022-11-28T05:18:20.093Z,128
2022-11-28T05:23:26.149Z,128
2022-11-28T05:28:32.240Z,0
2022-11-28T05:33:38.331Z,0
2022-11-28T05:38:44.410Z,0
2022-11-28T05:43:50.503Z,0
2022-11-28T05:48:55.618Z,0
2022-11-28T05:54:01.792Z,0
2022-11-28T05:59:07.801Z,0
2022-11-28T06:04:13.893Z,0
2022-11-28T06:09:19.984Z,0
2022-11-28T06:14:26.131Z,0
2022-11-28T06:19:32.221Z,0
2022-11-28T06:24:38.304Z,124
2022-11-28T06:29:44.429Z,128
2022-11-28T06:34:50.437Z,128
2022-11-28T06:39:56.593Z,128
2022-11-28T06:45:02.672Z,128
2022-11-28T06:50:08.706Z,128
2022-11-28T06:55:14.800Z,132
2022-11-28T07:00:20.971Z,8
2022-11-28T07:05:27.014Z,12
2022-11-28T07:10:33.065Z,12
2022-11-28T07:15:39.170Z,16
2022-11-28T07:20:45.275Z,16
2022-11-28T07:25:51.340Z,20
2022-11-28T07:30:57.429Z,28
2022-11-28T07:36:03.524Z,28
2022-11-28T07:41:09.604Z,32
2022-11-28T07:46:15.778Z,40
2022-11-28T07:51:21.954Z,40
2022-11-28T07:56:28.119Z,40
2022-11-28T08:01:34.095Z,176
2022-11-28T08:06:40.426Z,180
2022-11-28T08:11:46.583Z,188
2022-11-28T08:16:52.612Z,204
2022-11-28T08:21:58.945Z,200
2022-11-28T08:27:04.094Z,204
2022-11-28T08:32:10.160Z,212
2022-11-28T08:37:16.227Z,216
2022-11-28T08:42:22.349Z,228
2022-11-28T08:47:28.385Z,228
2022-11-28T08:52:34.499Z,228
2022-11-28T08:57:40.622Z,228
2022-11-28T09:02:46.677Z,228
2022-11-28T09:07:52.704Z,224
2022-11-28T09:12:58.856Z,228
2022-11-28T09:18:05.008Z,224
2022-11-28T09:23:11.021Z,96
2022-11-28T09:28:16.962Z,96
2022-11-28T09:33:23.132Z,100
2022-11-28T09:38:29.188Z,100
2022-11-28T09:43:35.462Z,100
2022-11-28T09:48:41.331Z,104
2022-11-28T09:53:47.575Z,112
